EGPN

Details ICAO EGPN (DND)
Name Dundee
Region United Kingdom
Timezone Unknown (UTC+0.0)
Plans Departing 38
Arriving 58
Stats Elevation 17 ft / 5 m (AMSL)
Location 56.452410° -3.025830°
Runways 1
Magnetic Variation 2.246° W
Sunrise 2017-12-15 08:41:57 UTC / 2017-12-15 08:41:57 Local
Sunset 2017-12-15 15:35:22 UTC / 2017-12-15 15:35:22 Local
Advertisement - Login to hide

Runways

ID Width Length Bearing (true) Bearing (mag) Surface Threshold Offset Overrun Length
09 98 ft / 30 m 4,578 ft / 1,396 m 90.49° 92.74° Asphalt 0 ft / 0 m 0 ft / 0 m
27 98 ft / 30 m 4,578 ft / 1,396 m 270.51° 272.76° Asphalt 0 ft / 0 m 0 ft / 0 m

Approach Navaids

Runway Type Ident Frequency Range Bearing (true) Bearing (mag) Slope Elevation
09 Localiser IDDE 108.10 MHz 18 nm / 33 km 90.53° 92.77° - 17 ft / 5 m (AMSL)
09 Glidescope IDDE 108.10 MHz 10 nm / 19 km 90.50° 92.75° 3.00° 17 ft / 5 m (AMSL)
09 DME IDDE 108.10 MHz 18 nm / 33 km - - - 38 ft / 12 m (AMSL)

Map

Weather


0- 5 10 15 20 25 30 35+ Temperature / ° C

Clouds and Precipitation
Forecast for 2017-12-16 00:00 UTC. Updated an hour ago

Ground ~20,000 ft ~40,000 ft Winds

METAR

EGPN 151950Z 24011KT 9999 FEW024 02/00 Q1010

TAF

Not found

Frequencies

Tower 122.90 MHz Dundee Tower
Approach 122.90 MHz Dundee Approach
Warning: Do not use this data for real-world aviation or navigation. No guarantee of current accuracy is given.